createdAt,value
2019-05-09T00:01:03.969Z,99439.52
2019-05-09T00:03:33.450Z,99438.87
2019-05-09T00:06:04.463Z,99436.56
2019-05-09T00:08:33.508Z,99445.60
2019-05-09T00:11:03.738Z,99445.60
2019-05-09T00:13:33.957Z,99455.61
2019-05-09T00:16:03.651Z,99447.17
2019-05-09T00:18:33.632Z,99449.11
2019-05-09T00:21:04.210Z,99446.80
2019-05-09T00:23:33.249Z,99446.56
2019-05-09T00:26:04.017Z,99450.25
2019-05-09T00:28:35.983Z,99453.11
2019-05-09T00:31:14.298Z,99448.45
2019-05-09T00:33:47.802Z,99452.83
2019-05-09T00:36:14.514Z,99454.86
2019-05-09T00:38:44.825Z,99451.03
2019-05-09T00:41:14.019Z,99454.80
2019-05-09T00:43:44.312Z,99450.59
2019-05-09T00:46:14.356Z,99451.47
2019-05-09T00:48:53.409Z,99461.84
2019-05-09T00:51:23.312Z,99462.58
2019-05-09T00:53:53.676Z,99456.80
2019-05-09T00:56:23.972Z,99457.30
2019-05-09T00:58:53.535Z,99456.51
2019-05-09T01:01:23.950Z,99453.84
2019-05-09T01:03:53.585Z,99453.19
2019-05-09T01:06:23.874Z,99454.34
2019-05-09T01:08:53.650Z,99454.02
2019-05-09T01:11:24.289Z,99460.05
2019-05-09T01:13:54.383Z,99447.19
2019-05-09T01:16:24.126Z,99449.72
2019-05-09T01:18:54.399Z,99451.56
2019-05-09T01:21:24.069Z,99456.96
2019-05-09T01:23:53.988Z,99455.58
2019-05-09T01:26:23.984Z,99452.58
2019-05-09T01:28:53.973Z,99463.34
2019-05-09T01:31:24.107Z,99446.80
2019-05-09T01:33:57.430Z,99454.16
2019-05-09T01:36:27.505Z,99450.30
2019-05-09T01:38:55.925Z,99456.38
2019-05-09T01:41:30.654Z,99462.55
2019-05-09T01:43:54.505Z,99463.56
2019-05-09T01:46:23.604Z,99456.69
2019-05-09T01:48:53.868Z,99458.39
2019-05-09T01:51:23.301Z,99452.69
2019-05-09T01:53:53.797Z,99455.86
2019-05-09T01:56:23.507Z,99449.69
2019-05-09T01:58:53.615Z,99443.19
2019-05-09T02:01:23.961Z,99444.69
2019-05-09T02:03:53.740Z,99440.19
2019-05-09T02:06:24.335Z,99440.88
2019-05-09T02:08:54.575Z,99448.96
2019-05-09T02:11:23.852Z,99443.94
2019-05-09T02:13:53.472Z,99447.84
2019-05-09T02:16:26.158Z,99447.37
2019-05-09T02:19:04.018Z,99442.39
2019-05-09T02:21:34.366Z,99447.61
2019-05-09T02:24:03.312Z,99438.27
2019-05-09T02:26:33.488Z,99440.11
2019-05-09T02:29:03.251Z,99444.98
2019-05-09T02:31:35.108Z,99449.34
2019-05-09T02:34:04.568Z,99450.35
2019-05-09T02:36:32.250Z,99454.22
2019-05-09T02:39:00.680Z,99456.77
2019-05-09T02:41:29.125Z,99453.95
2019-05-09T02:43:58.521Z,99455.79
2019-05-09T02:46:38.657Z,99452.47
2019-05-09T02:49:08.750Z,99453.80
2019-05-09T02:51:38.677Z,99450.66
2019-05-09T02:54:09.941Z,99457.84
2019-05-09T02:56:38.599Z,99457.27
2019-05-09T02:59:09.660Z,99457.84
2019-05-09T03:01:58.563Z,99459.53
2019-05-09T03:04:28.467Z,99463.09
2019-05-09T03:06:59.779Z,99464.62
2019-05-09T03:09:28.680Z,99467.63
2019-05-09T03:11:58.942Z,99459.46
2019-05-09T03:14:28.697Z,99463.80
2019-05-09T03:16:58.592Z,99467.39
2019-05-09T03:19:29.655Z,99464.78
2019-05-09T03:22:04.893Z,99462.46
2019-05-09T03:24:33.325Z,99453.44
2019-05-09T03:27:03.421Z,99459.79
2019-05-09T03:29:33.474Z,99467.00
2019-05-09T03:32:01.905Z,99458.98
2019-05-09T03:34:30.440Z,99455.30
2019-05-09T03:36:58.855Z,99459.16
2019-05-09T03:39:27.724Z,99461.03
2019-05-09T03:41:57.473Z,99464.83
2019-05-09T03:44:25.302Z,99465.72
2019-05-09T03:46:57.926Z,99458.28
2019-05-09T03:49:25.492Z,99463.17
2019-05-09T03:51:53.921Z,99461.06
2019-05-09T03:54:22.354Z,99457.73
2019-05-09T03:57:07.785Z,99462.75
2019-05-09T03:59:38.121Z,99467.75
2019-05-09T04:02:09.960Z,99472.11
2019-05-09T04:04:35.740Z,99476.09
2019-05-09T04:07:04.109Z,99480.21
2019-05-09T04:09:32.542Z,99478.77
2019-05-09T04:12:01.033Z,99483.78
2019-05-09T04:14:31.070Z,99486.42
2019-05-09T04:16:59.574Z,99487.43
2019-05-09T04:19:28.280Z,99496.25
2019-05-09T04:21:57.609Z,99495.03
2019-05-09T04:24:28.050Z,99499.19
2019-05-09T04:27:09.675Z,99510.66
2019-05-09T04:29:38.057Z,99505.75
2019-05-09T04:32:07.956Z,99508.11
2019-05-09T04:34:38.114Z,99513.42
2019-05-09T04:37:08.028Z,99518.39
2019-05-09T04:39:38.614Z,99508.36
2019-05-09T04:42:08.301Z,99515.16
2019-05-09T04:44:38.813Z,99509.43
2019-05-09T04:47:08.751Z,99508.06
2019-05-09T04:49:40.948Z,99503.52
2019-05-09T04:52:07.785Z,99499.22
2019-05-09T04:54:38.422Z,99502.12
2019-05-09T04:57:07.755Z,99504.27
2019-05-09T04:59:37.374Z,99500.33
2019-05-09T05:02:27.607Z,99509.33
2019-05-09T05:04:58.393Z,99504.81
2019-05-09T05:07:28.540Z,99503.66
2019-05-09T05:09:57.559Z,99514.46
2019-05-09T05:12:27.774Z,99513.13
2019-05-09T05:14:57.980Z,99515.55
2019-05-09T05:17:30.240Z,99518.88
2019-05-09T05:19:58.053Z,99514.58
2019-05-09T05:22:39.893Z,99512.55
2019-05-09T05:25:09.265Z,99520.97
2019-05-09T05:27:38.321Z,99518.29
2019-05-09T05:30:07.751Z,99525.66
2019-05-09T05:32:43.461Z,99522.05
2019-05-09T05:35:14.600Z,99535.45
2019-05-09T05:37:44.065Z,99536.11
2019-05-09T05:40:12.960Z,99534.19
2019-05-09T05:42:44.582Z,99544.13
2019-05-09T05:45:13.214Z,99547.31
2019-05-09T05:47:48.398Z,99544.78
2019-05-09T05:50:17.673Z,99545.77
2019-05-09T05:52:47.553Z,99551.80
2019-05-09T05:55:18.196Z,99558.30
2019-05-09T05:57:47.817Z,99560.11
2019-05-09T06:00:19.188Z,99560.88
2019-05-09T06:02:47.967Z,99562.92
2019-05-09T06:05:18.676Z,99574.24
2019-05-09T06:07:48.347Z,99571.54
2019-05-09T06:10:18.623Z,99572.52
2019-05-09T06:12:48.173Z,99566.63
2019-05-09T06:15:18.404Z,99567.78
2019-05-09T06:17:48.386Z,99575.38
2019-05-09T06:20:17.866Z,99581.48
2019-05-09T06:22:47.694Z,99578.73
2019-05-09T06:25:20.200Z,99578.20
2019-05-09T06:27:48.260Z,99574.39
2019-05-09T06:30:30.456Z,99580.72
2019-05-09T06:32:59.731Z,99580.53
2019-05-09T06:35:28.694Z,99579.52
2019-05-09T06:37:58.755Z,99582.16
2019-05-09T06:40:28.737Z,99587.38
2019-05-09T06:42:59.354Z,99591.45
2019-05-09T06:45:44.532Z,99586.64
2019-05-09T06:48:14.231Z,99586.68
2019-05-09T06:50:42.663Z,99602.16
2019-05-09T06:53:11.085Z,99598.38
2019-05-09T06:55:39.524Z,99597.23
2019-05-09T06:58:27.583Z,99606.48
2019-05-09T07:00:58.446Z,99607.59
2019-05-09T07:03:34.811Z,99607.55
2019-05-09T07:06:04.889Z,99606.85
2019-05-09T07:08:38.080Z,99615.21
2019-05-09T07:11:07.596Z,99607.69
2019-05-09T07:13:38.218Z,99616.64
2019-05-09T07:16:08.352Z,99625.78
2019-05-09T07:18:38.292Z,99623.75
2019-05-09T07:21:08.214Z,99625.92
2019-05-09T07:23:37.411Z,99623.98
2019-05-09T07:26:19.256Z,99625.28
2019-05-09T07:28:48.748Z,99622.29
2019-05-09T07:31:18.868Z,99625.94
2019-05-09T07:33:51.635Z,99620.77
2019-05-09T07:36:20.134Z,99628.19
2019-05-09T07:38:48.730Z,99622.30
2019-05-09T07:41:17.772Z,99635.13
2019-05-09T07:43:47.816Z,99634.20
2019-05-09T07:46:18.136Z,99636.29
2019-05-09T07:48:48.437Z,99638.22
2019-05-09T07:51:18.097Z,99636.70
2019-05-09T07:53:48.162Z,99632.39
2019-05-09T07:56:18.624Z,99636.31
2019-05-09T07:58:47.779Z,99640.97
2019-05-09T08:01:18.811Z,99644.53
2019-05-09T08:03:48.817Z,99642.77
2019-05-09T08:06:18.373Z,99637.90
2019-05-09T08:08:47.655Z,99639.61
2019-05-09T08:11:18.041Z,99641.91
2019-05-09T08:13:48.618Z,99642.55
2019-05-09T08:16:18.609Z,99647.02
2019-05-09T08:18:48.344Z,99650.70
2019-05-09T08:21:18.097Z,99651.79
2019-05-09T08:23:48.600Z,99645.12
2019-05-09T08:26:18.884Z,99663.61
2019-05-09T08:28:47.988Z,99656.13
2019-05-09T08:31:17.839Z,99654.92
2019-05-09T08:33:48.516Z,99661.31
2019-05-09T08:36:18.003Z,99656.48
2019-05-09T08:38:47.787Z,99660.86
2019-05-09T08:41:18.425Z,99659.31
2019-05-09T08:43:48.351Z,99670.03
2019-05-09T08:46:18.181Z,99656.16
2019-05-09T08:48:48.551Z,99660.51
2019-05-09T08:51:18.282Z,99665.25
2019-05-09T08:53:48.208Z,99668.14
2019-05-09T08:56:17.807Z,99666.30
2019-05-09T08:58:48.540Z,99671.98
2019-05-09T09:01:27.416Z,99674.33
2019-05-09T09:03:48.421Z,99670.98
2019-05-09T09:06:18.387Z,99672.08
2019-05-09T09:08:48.316Z,99677.34
2019-05-09T09:11:18.734Z,99671.57
2019-05-09T09:13:48.305Z,99666.62
2019-05-09T09:16:22.064Z,99675.20
2019-05-09T09:18:48.063Z,99676.55
2019-05-09T09:21:18.278Z,99673.66
2019-05-09T09:23:50.257Z,99675.73
2019-05-09T09:26:18.349Z,99678.05
2019-05-09T09:28:48.476Z,99678.84
2019-05-09T09:31:18.002Z,99674.77
2019-05-09T09:33:47.992Z,99680.23
2019-05-09T09:36:17.898Z,99682.39
2019-05-09T09:38:48.073Z,99682.30
2019-05-09T09:41:18.207Z,99683.70
2019-05-09T09:43:47.628Z,99675.10
2019-05-09T09:46:18.252Z,99676.72
2019-05-09T09:48:48.040Z,99680.65
2019-05-09T09:51:18.338Z,99680.13
2019-05-09T09:53:48.688Z,99680.02
2019-05-09T09:56:17.837Z,99677.55
2019-05-09T09:58:48.366Z,99682.32
2019-05-09T10:01:23.295Z,99690.72
2019-05-09T10:03:53.299Z,99685.64
2019-05-09T10:06:28.486Z,99683.76
2019-05-09T10:08:58.056Z,99690.88
2019-05-09T10:11:28.632Z,99688.70
2019-05-09T10:13:58.431Z,99688.57
2019-05-09T10:16:32.707Z,99687.40
2019-05-09T10:19:08.605Z,99689.81
2019-05-09T10:21:44.393Z,99697.55
2019-05-09T10:24:12.822Z,99694.17
2019-05-09T10:26:42.899Z,99698.31
2019-05-09T10:29:11.323Z,99690.00
2019-05-09T10:31:39.763Z,99689.80
2019-05-09T10:34:10.987Z,99690.44
2019-05-09T10:36:38.528Z,99690.44
2019-05-09T10:39:08.301Z,99698.09
2019-05-09T10:41:37.616Z,99697.28
2019-05-09T10:44:08.482Z,99703.47
2019-05-09T10:46:52.843Z,99699.35
2019-05-09T10:49:09.475Z,99697.88
2019-05-09T10:51:37.916Z,99691.07
2019-05-09T10:54:08.192Z,99696.28
2019-05-09T10:56:38.429Z,99692.39
2019-05-09T10:59:07.833Z,99696.32
2019-05-09T11:01:38.180Z,99695.10
2019-05-09T11:04:08.141Z,99691.46
2019-05-09T11:06:38.289Z,99690.51
2019-05-09T11:09:09.236Z,99692.22
2019-05-09T11:11:38.046Z,99692.75
2019-05-09T11:14:08.631Z,99693.44
2019-05-09T11:16:44.843Z,99692.73
2019-05-09T11:19:07.976Z,99686.27
2019-05-09T11:21:35.475Z,99689.58
2019-05-09T11:24:03.841Z,99692.85
2019-05-09T11:26:32.283Z,99695.85
2019-05-09T11:29:00.752Z,99690.27
2019-05-09T11:31:29.777Z,99689.16
2019-05-09T11:33:58.273Z,99690.91
2019-05-09T11:36:26.687Z,99684.80
2019-05-09T11:38:55.197Z,99686.30
2019-05-09T11:41:23.618Z,99685.57
2019-05-09T11:43:52.056Z,99689.64
2019-05-09T11:46:20.466Z,99684.00
2019-05-09T11:48:48.920Z,99685.16
2019-05-09T11:51:20.352Z,99689.40
2019-05-09T11:56:17.965Z,99688.54
2019-05-09T11:58:48.086Z,99693.16
2019-05-09T12:01:18.589Z,99688.61
2019-05-09T12:03:49.910Z,99695.13
2019-05-09T12:06:16.389Z,99697.77
2019-05-09T12:08:48.093Z,99702.32
2019-05-09T12:11:17.859Z,99693.48
2019-05-09T12:13:45.191Z,99690.33
2019-05-09T12:16:13.640Z,99694.00
2019-05-09T12:18:42.067Z,99689.00
2019-05-09T12:21:10.507Z,99689.00
2019-05-09T12:23:38.936Z,99680.53
2019-05-09T12:26:08.255Z,99692.69
2019-05-09T12:28:38.670Z,99696.73
2019-05-09T12:31:07.865Z,99691.55
2019-05-09T12:33:35.670Z,99687.50
2019-05-09T12:36:04.776Z,99693.08
2019-05-09T12:38:33.268Z,99692.53
2019-05-09T12:41:01.681Z,99694.66
2019-05-09T12:43:30.098Z,99689.32
2019-05-09T12:45:58.521Z,99691.24
2019-05-09T12:48:27.965Z,99691.77
2019-05-09T12:50:58.629Z,99692.34
2019-05-09T12:53:27.985Z,99692.34
2019-05-09T12:56:02.624Z,99685.21
2019-05-09T12:58:31.327Z,99692.84
2019-05-09T13:01:00.417Z,99685.34
2019-05-09T13:03:29.599Z,99692.22
2019-05-09T13:05:58.346Z,99694.30
2019-05-09T13:08:27.801Z,99694.27
2019-05-09T13:10:58.309Z,99699.84
2019-05-09T13:13:30.260Z,99694.82
2019-05-09T13:16:13.822Z,99698.80
2019-05-09T13:19:00.245Z,99698.78
2019-05-09T13:21:32.333Z,99693.81
2019-05-09T13:23:58.794Z,99689.73
2019-05-09T13:26:28.913Z,99687.37
2019-05-09T13:28:58.900Z,99692.27
2019-05-09T13:31:29.506Z,99690.03
2019-05-09T13:33:58.528Z,99694.69
2019-05-09T13:36:28.446Z,99695.52
2019-05-09T13:39:04.396Z,99700.61
2019-05-09T13:41:26.718Z,99697.64
2019-05-09T13:43:59.247Z,99704.98
2019-05-09T13:46:24.535Z,99700.38
2019-05-09T13:49:10.010Z,99698.18
2019-05-09T13:51:23.396Z,99694.09
2019-05-09T13:53:51.844Z,99689.16
2019-05-09T13:56:20.256Z,99692.60
2019-05-09T13:58:48.875Z,99701.63
2019-05-09T14:01:17.706Z,99697.09
2019-05-09T14:03:48.799Z,99698.21
2019-05-09T14:06:15.866Z,99695.34
2019-05-09T14:08:44.233Z,99692.30
2019-05-09T14:11:12.672Z,99698.02
2019-05-09T14:13:41.099Z,99700.94
2019-05-09T14:16:19.836Z,99702.64
2019-05-09T14:18:39.710Z,99706.16
2019-05-09T14:21:08.123Z,99700.61
2019-05-09T14:23:46.649Z,99702.47
2019-05-09T14:26:09.158Z,99704.72
2019-05-09T14:28:45.202Z,99706.34
2019-05-09T14:31:13.629Z,99704.50
2019-05-09T14:33:42.044Z,99702.52
2019-05-09T14:36:10.495Z,99705.95
2019-05-09T14:38:39.310Z,99706.61
2019-05-09T14:41:07.927Z,99700.72
2019-05-09T14:43:39.334Z,99698.58
2019-05-09T14:46:08.007Z,99689.40
2019-05-09T14:48:35.848Z,99690.97
2019-05-09T14:51:04.309Z,99682.14
2019-05-09T14:53:32.723Z,99695.57
2019-05-09T14:56:01.516Z,99695.73
2019-05-09T14:58:29.948Z,99692.00
2019-05-09T15:01:00.812Z,99684.00
2019-05-09T15:03:28.526Z,99696.05
2019-05-09T15:05:57.475Z,99688.77
2019-05-09T15:08:27.960Z,99686.60
2019-05-09T15:10:58.257Z,99687.61
2019-05-09T15:13:28.539Z,99698.41
2019-05-09T15:15:57.861Z,99697.73
2019-05-09T15:18:26.613Z,99689.37
2019-05-09T15:20:55.054Z,99696.11
2019-05-09T15:23:23.460Z,99694.40
2019-05-09T15:25:51.936Z,99701.20
2019-05-09T15:28:20.308Z,99695.83
2019-05-09T15:30:49.043Z,99706.57
2019-05-09T15:33:17.745Z,99699.34
2019-05-09T15:35:48.571Z,99703.55
2019-05-09T15:38:17.953Z,99713.33
2019-05-09T15:40:48.120Z,99710.63
2019-05-09T15:43:18.344Z,99713.97
2019-05-09T15:45:46.928Z,99715.33
2019-05-09T15:48:15.291Z,99713.83
2019-05-09T15:50:43.714Z,99711.72
2019-05-09T15:53:12.151Z,99713.87
2019-05-09T15:55:40.598Z,99714.72
2019-05-09T15:58:09.017Z,99716.39
2019-05-09T16:00:38.647Z,99716.19
2019-05-09T16:03:07.164Z,99717.00
2019-05-09T16:05:38.555Z,99719.63
2019-05-09T16:08:09.031Z,99720.38
2019-05-09T16:10:37.401Z,99720.03
2019-05-09T16:13:07.980Z,99726.35
2019-05-09T16:15:38.198Z,99719.97
2019-05-09T16:18:08.422Z,99715.44
2019-05-09T16:20:38.451Z,99724.94
2019-05-09T16:23:08.426Z,99720.77
2019-05-09T16:25:38.538Z,99722.42
2019-05-09T16:28:07.834Z,99719.91
2019-05-09T16:30:38.063Z,99724.75
2019-05-09T16:33:08.030Z,99724.28
2019-05-09T16:35:37.941Z,99734.89
2019-05-09T16:38:09.753Z,99734.12
2019-05-09T16:40:35.721Z,99735.70
2019-05-09T16:43:04.252Z,99730.18
2019-05-09T16:45:32.693Z,99731.12
2019-05-09T16:48:01.187Z,99729.36
2019-05-09T16:50:29.588Z,99731.78
2019-05-09T16:52:58.563Z,99728.64
2019-05-09T16:55:34.766Z,99728.36
2019-05-09T16:58:03.188Z,99727.16
2019-05-09T17:00:34.471Z,99732.19
2019-05-09T17:03:02.972Z,99728.75
2019-05-09T17:05:31.591Z,99730.87
2019-05-09T17:08:00.086Z,99725.08
2019-05-09T17:10:28.515Z,99727.16
2019-05-09T17:12:58.217Z,99735.45
2019-05-09T17:15:29.158Z,99731.91
2019-05-09T17:17:56.316Z,99732.28
2019-05-09T17:20:29.173Z,99731.00
2019-05-09T17:23:14.189Z,99733.94
2019-05-09T17:25:38.587Z,99736.67
2019-05-09T17:28:07.163Z,99740.20
2019-05-09T17:30:38.390Z,99739.52
2019-05-09T17:33:07.862Z,99744.34
2019-05-09T17:35:38.667Z,99742.39
2019-05-09T17:38:08.701Z,99742.98
2019-05-09T17:40:39.074Z,99744.16
2019-05-09T17:43:08.340Z,99748.16
2019-05-09T17:45:41.783Z,99745.27
2019-05-09T17:48:08.601Z,99747.41
2019-05-09T17:50:38.420Z,99751.50
2019-05-09T17:53:08.426Z,99755.96
2019-05-09T17:55:38.091Z,99754.09
2019-05-09T17:58:08.787Z,99760.81
2019-05-09T18:00:38.051Z,99761.59
2019-05-09T18:03:06.583Z,99760.61
2019-05-09T18:05:35.965Z,99764.72
2019-05-09T18:08:07.842Z,99766.94
2019-05-09T18:10:37.790Z,99770.06
2019-05-09T18:13:07.871Z,99779.98
2019-05-09T18:15:37.990Z,99774.75
2019-05-09T18:18:06.997Z,99780.77
2019-05-09T18:20:37.679Z,99785.22
2019-05-09T18:23:07.992Z,99712.68
2019-05-09T18:25:37.083Z,99792.50
2019-05-09T18:28:05.427Z,99792.71
2019-05-09T18:30:33.862Z,99794.66
2019-05-09T18:33:09.939Z,99793.27
2019-05-09T18:35:38.350Z,99795.67
2019-05-09T18:38:08.028Z,99795.40
2019-05-09T18:40:36.498Z,99794.89
2019-05-09T18:43:04.970Z,99792.84
2019-05-09T18:45:33.399Z,99796.71
2019-05-09T18:48:01.822Z,99800.88
2019-05-09T18:50:30.258Z,99805.43
2019-05-09T18:52:58.680Z,99808.14
2019-05-09T18:55:27.123Z,99808.13
2019-05-09T18:57:55.539Z,99812.38
2019-05-09T19:00:26.603Z,99808.21
2019-05-09T19:02:55.117Z,99814.92
2019-05-09T19:05:23.658Z,99819.89
2019-05-09T19:07:56.560Z,99816.14
2019-05-09T19:10:28.362Z,99825.22
2019-05-09T19:12:56.816Z,99822.73
2019-05-09T19:15:28.143Z,99825.81
2019-05-09T19:17:58.228Z,99831.40
2019-05-09T19:20:43.547Z,99830.77
2019-05-09T19:23:12.052Z,99833.11
2019-05-09T19:25:40.536Z,99829.18
2019-05-09T19:28:08.976Z,99831.83
2019-05-09T19:30:37.396Z,99833.26
2019-05-09T19:33:05.870Z,99831.70
2019-05-09T19:35:34.255Z,99828.06
2019-05-09T19:38:02.675Z,99839.21
2019-05-09T19:40:31.104Z,99834.94
2019-05-09T19:42:59.521Z,99843.11
2019-05-09T19:45:28.045Z,99842.67
2019-05-09T19:47:56.445Z,99845.62
2019-05-09T19:50:24.878Z,99851.11
2019-05-09T19:52:53.290Z,99844.77
2019-05-09T19:55:21.736Z,99852.37
2019-05-09T19:57:50.157Z,99846.35
2019-05-09T20:00:19.059Z,99855.83
2019-05-09T20:02:47.482Z,99850.45
2019-05-09T20:05:16.024Z,99846.39
2019-05-09T20:07:44.814Z,99850.81
2019-05-09T20:10:17.952Z,99847.34
2019-05-09T20:13:04.169Z,99859.33
2019-05-09T20:15:32.653Z,99860.45
2019-05-09T20:18:01.176Z,99865.57
2019-05-09T20:20:29.653Z,99866.98
2019-05-09T20:22:58.069Z,99873.59
2019-05-09T20:25:26.501Z,99872.63
2019-05-09T20:27:54.969Z,99876.72
2019-05-09T20:30:23.383Z,99873.59
2019-05-09T20:32:51.815Z,99878.45
2019-05-09T20:35:20.234Z,99876.14
2019-05-09T20:37:48.885Z,99875.91
2019-05-09T20:40:17.594Z,99876.74
2019-05-09T20:42:46.276Z,99880.97
2019-05-09T20:45:14.874Z,99880.45
2019-05-09T20:47:43.516Z,99881.09
2019-05-09T20:50:12.484Z,99878.92
2019-05-09T20:52:41.159Z,99879.98
2019-05-09T20:55:11.269Z,99884.71
2019-05-09T20:57:39.895Z,99887.66
2019-05-09T21:00:08.586Z,99891.05
2019-05-09T21:02:37.188Z,99891.05
2019-05-09T21:05:06.964Z,99891.38
2019-05-09T21:07:35.564Z,99891.05
2019-05-09T21:10:08.193Z,99902.76
2019-05-09T21:12:36.791Z,99902.25
2019-05-09T21:15:07.588Z,99905.12
2019-05-09T21:17:36.135Z,99906.14
2019-05-09T21:20:06.288Z,99907.48
2019-05-09T21:22:34.925Z,99910.05
2019-05-09T21:25:04.204Z,99904.67
2019-05-09T21:27:32.819Z,99908.83
2019-05-09T21:30:01.444Z,99904.67
2019-05-09T21:32:30.041Z,99908.05
2019-05-09T21:34:58.459Z,99909.30
2019-05-09T21:37:26.893Z,99908.14
2019-05-09T21:39:55.311Z,99910.00
2019-05-09T21:42:23.776Z,99910.70
2019-05-09T21:44:52.204Z,99912.55
2019-05-09T21:47:20.655Z,99919.41
2019-05-09T21:49:49.089Z,99920.48
2019-05-09T21:52:17.506Z,99922.84
2019-05-09T21:54:45.982Z,99919.59
2019-05-09T21:57:14.388Z,99924.00
2019-05-09T21:59:42.819Z,99916.19
2019-05-09T22:02:11.875Z,99928.00
2019-05-09T22:04:40.320Z,99927.94
2019-05-09T22:07:08.764Z,99930.35
2019-05-09T22:09:37.268Z,99931.17
2019-05-09T22:12:06.538Z,99935.08
2019-05-09T22:14:34.953Z,99936.68
2019-05-09T22:17:05.337Z,99945.09
2019-05-09T22:19:33.057Z,99947.64
2019-05-09T22:22:01.470Z,99942.94
2019-05-09T22:24:29.902Z,99945.83
2019-05-09T22:26:58.338Z,99947.87
2019-05-09T22:29:27.034Z,99944.75
2019-05-09T22:31:55.485Z,99944.23
2019-05-09T22:34:23.901Z,99952.14
2019-05-09T22:36:52.326Z,99947.61
2019-05-09T22:39:20.769Z,99945.44
2019-05-09T22:41:49.206Z,99945.80
2019-05-09T22:44:17.644Z,99946.67
2019-05-09T22:46:46.079Z,99945.66
2019-05-09T22:49:14.512Z,99950.74
2019-05-09T22:51:42.925Z,99950.13
2019-05-09T22:54:13.015Z,99959.88
2019-05-09T22:56:41.821Z,99952.19
2019-05-09T22:59:10.263Z,99957.23
2019-05-09T23:01:38.693Z,99951.06
2019-05-09T23:04:07.130Z,99956.44
2019-05-09T23:06:35.558Z,99955.92
2019-05-09T23:09:05.336Z,99959.26
2019-05-09T23:11:33.758Z,99962.77
2019-05-09T23:14:02.180Z,99964.08
2019-05-09T23:16:32.276Z,99960.38
2019-05-09T23:19:00.716Z,99966.22
2019-05-09T23:21:30.009Z,99966.66
2019-05-09T23:24:08.646Z,99963.61
2019-05-09T23:26:37.073Z,99970.60
2019-05-09T23:29:05.506Z,99966.07
2019-05-09T23:31:44.825Z,99959.32
2019-05-09T23:34:13.250Z,99963.64
2019-05-09T23:36:41.663Z,99966.14
2019-05-09T23:39:17.649Z,99959.43
2019-05-09T23:41:46.067Z,99957.25
2019-05-09T23:44:14.528Z,99959.75
2019-05-09T23:46:42.924Z,99958.23
2019-05-09T23:49:11.342Z,99964.25
2019-05-09T23:51:45.986Z,99964.25
2019-05-09T23:54:45.147Z,99957.22
2019-05-09T23:57:20.724Z,99960.04
